Time;durP1;ratioP1;P1;durP2;ratioP2;P2;SDS_P1;SDS_P2;PMS_P1;PMS_P2;Temp;Humidity;BMP_temperature;BMP_pressure;BME280_temperature;BME280_humidity;BME280_pressure;Samples;Min_cycle;Max_cycle;Signal;HPM_P1;HPM_P2
2022/03/19 00:02:13;;;;;;;119.63;68.32;;;;;;;23.99;52.92;104732.53;5080862;28;20020;-63
2022/03/19 00:04:39;;;;;;;117.85;66.90;;;;;;;24.02;53.38;104743.31;5072406;28;20036;-63
2022/03/19 00:07:04;;;;;;;123.43;67.65;;;;;;;24.01;53.31;104744.28;5072421;28;20467;-63
2022/03/19 00:09:29;;;;;;;121.72;67.85;;;;;;;24.00;53.79;104748.03;5072203;28;20380;-63
2022/03/19 00:11:55;;;;;;;120.35;66.47;;;;;;;23.95;53.83;104744.78;5072388;28;20031;-64
2022/03/19 00:14:20;;;;;;;124.90;69.07;;;;;;;23.97;54.57;104756.53;5072076;28;20104;-62
2022/03/19 00:16:46;;;;;;;121.18;66.40;;;;;;;23.96;53.67;104757.50;5072305;28;20075;-63
2022/03/19 00:19:11;;;;;;;129.18;70.90;;;;;;;23.96;53.93;104758.41;5072254;28;20028;-63
2022/03/19 00:21:37;;;;;;;128.65;70.25;;;;;;;23.97;53.76;104770.25;5072488;28;20035;-63
2022/03/19 00:24:04;;;;;;;124.80;69.85;;;;;;;23.96;55.48;104774.00;5072184;28;20023;-62
2022/03/19 00:26:30;;;;;;;133.93;72.68;;;;;;;23.93;55.12;104774.25;5071999;28;20024;-63
2022/03/19 00:28:55;;;;;;;126.45;70.22;;;;;;;23.96;54.68;104768.50;5072243;28;20052;-63
2022/03/19 00:31:20;;;;;;;138.38;75.25;;;;;;;23.93;55.15;104774.25;5076895;28;20039;-62
2022/03/19 00:33:46;;;;;;;137.02;72.32;;;;;;;23.94;55.42;104770.50;5092323;28;20062;-63
2022/03/19 00:36:11;;;;;;;132.45;71.05;;;;;;;23.96;55.21;104782.25;5092059;28;20031;-63
2022/03/19 00:38:36;;;;;;;132.50;72.15;;;;;;;23.93;56.08;104785.25;5092188;28;20035;-63
2022/03/19 00:41:03;;;;;;;147.32;77.65;;;;;;;23.83;56.10;104790.53;5092255;28;20028;-63
2022/03/19 00:43:28;;;;;;;138.77;75.10;;;;;;;23.92;55.70;104788.97;5093063;28;20016;-63
2022/03/19 00:45:54;;;;;;;135.93;73.97;;;;;;;23.84;55.81;104789.53;5096326;28;20030;-63
2022/03/19 00:48:19;;;;;;;133.70;73.88;;;;;;;23.87;55.07;104788.47;5095975;28;20467;-63
2022/03/19 00:50:45;;;;;;;140.82;75.93;;;;;;;23.85;55.76;104788.56;5096185;28;20494;-63
2022/03/19 00:53:10;;;;;;;130.82;72.15;;;;;;;23.88;55.77;104790.22;5095996;28;20028;-64
2022/03/19 00:55:35;;;;;;;137.50;74.93;;;;;;;23.88;55.76;104792.97;5095964;28;20179;-63
2022/03/19 00:58:00;;;;;;;140.75;77.40;;;;;;;23.89;56.49;104794.72;5096050;28;20028;-63
2022/03/19 01:00:29;;;;;;;135.45;76.22;;;;;;;23.93;56.25;104796.22;5095821;28;20483;-64
2022/03/19 01:02:55;;;;;;;135.38;75.03;;;;;;;23.86;56.36;104800.44;5077076;28;20066;-63
2022/03/19 01:05:22;;;;;;;142.05;73.43;;;;;;;23.81;56.63;104797.13;5075420;28;20032;-62
2022/03/19 01:07:53;;;;;;;136.38;73.10;;;;;;;23.88;57.16;104801.22;5075643;28;20024;-64
2022/03/19 01:10:24;;;;;;;143.02;73.93;;;;;;;23.82;56.91;104804.38;5075512;28;20059;-63
2022/03/19 01:12:51;;;;;;;133.77;74.20;;;;;;;23.93;56.83;104808.09;5074399;28;20471;-63
2022/03/19 01:15:17;;;;;;;139.48;74.88;;;;;;;23.89;56.55;104806.59;5075181;28;20035;-62
2022/03/19 01:17:43;;;;;;;133.23;71.88;;;;;;;23.85;56.90;104812.41;5075466;28;20515;-63
2022/03/19 01:20:10;;;;;;;126.43;70.43;;;;;;;23.87;57.06;104807.69;5075249;28;20079;-63
2022/03/19 01:22:37;;;;;;;131.13;69.93;;;;;;;23.92;56.75;104800.84;5075195;28;20020;-63
2022/03/19 01:25:05;;;;;;;125.93;68.70;;;;;;;23.88;57.24;104806.69;5075294;28;20459;-63
2022/03/19 01:27:31;;;;;;;136.23;74.35;;;;;;;23.83;57.44;104804.28;5074930;28;20494;-63
2022/03/19 01:29:57;;;;;;;134.65;75.32;;;;;;;23.80;57.23;104807.25;5073928;28;20025;-63
2022/03/19 01:32:22;;;;;;;131.82;73.00;;;;;;;23.83;57.28;104806.13;5090878;28;20040;-63
2022/03/19 01:34:48;;;;;;;140.00;72.95;;;;;;;23.79;56.92;104815.63;5095360;28;20031;-63
2022/03/19 01:37:13;;;;;;;127.88;69.07;;;;;;;23.80;57.23;104807.25;5095167;28;20072;-63
2022/03/19 01:39:38;;;;;;;129.30;69.72;;;;;;;23.75;56.32;104805.84;5095221;28;20024;-63
2022/03/19 01:42:04;;;;;;;136.70;70.15;;;;;;;23.74;56.57;104812.34;5095152;28;20028;-64
2022/03/19 01:44:30;;;;;;;120.90;66.20;;;;;;;23.76;56.73;104808.47;5094868;28;20027;-63
2022/03/19 01:47:03;;;;;;;124.38;68.93;;;;;;;23.77;55.97;104812.09;5095125;28;20090;-63
2022/03/19 01:49:30;;;;;;;122.32;65.35;;;;;;;23.74;55.52;104817.84;5093514;28;20459;-64
2022/03/19 01:51:57;;;;;;;121.57;66.88;;;;;;;23.76;55.69;104821.34;5094923;28;20111;-63
2022/03/19 01:54:27;;;;;;;125.30;66.38;;;;;;;23.75;54.79;104827.81;5094564;28;20024;-63
2022/03/19 01:56:54;;;;;;;131.95;70.10;;;;;;;23.79;54.77;104823.84;5094426;28;20028;-64
2022/03/19 01:59:22;;;;;;;132.57;71.30;;;;;;;23.72;54.94;104825.31;5094642;28;20024;-63
2022/03/19 02:01:49;;;;;;;128.30;68.68;;;;;;;23.76;55.69;104816.72;5083304;28;20024;-63
2022/03/19 02:04:14;;;;;;;127.72;71.07;;;;;;;23.70;54.30;104823.56;5088729;28;20036;-64
2022/03/19 02:06:40;;;;;;;131.52;67.95;;;;;;;23.70;54.77;104820.81;5094651;28;20061;-63
2022/03/19 02:09:06;;;;;;;129.32;67.97;;;;;;;23.70;54.47;104822.69;5094762;28;20108;-63
2022/03/19 02:11:34;;;;;;;127.25;67.82;;;;;;;23.73;53.81;104827.06;5094422;28;20453;-63
2022/03/19 02:14:00;;;;;;;124.75;67.13;;;;;;;23.64;53.28;104829.47;5094477;28;20065;-63
2022/03/19 02:16:25;;;;;;;129.20;67.07;;;;;;;23.66;54.73;104823.88;5092949;28;20035;-63
2022/03/19 02:18:51;;;;;;;129.25;67.88;;;;;;;23.62;53.98;104825.97;5094520;28;20027;-63
2022/03/19 02:21:16;;;;;;;132.55;69.03;;;;;;;23.69;54.46;104821.81;5094435;28;20031;-63
2022/03/19 02:26:25;;;;;;;122.25;65.32;;;;;;;23.69;54.55;104819.06;5094424;28;20425;-63
2022/03/19 02:28:50;;;;;;;128.98;69.13;;;;;;;23.66;54.93;104816.50;5094288;28;20463;-63
2022/03/19 02:31:17;;;;;;;132.18;69.88;;;;;;;23.69;54.24;104815.44;5084347;28;20024;-63
2022/03/19 02:33:42;;;;;;;133.68;70.60;;;;;;;23.72;53.94;104830.81;5073884;28;20025;-63
2022/03/19 02:36:08;;;;;;;131.45;70.13;;;;;;;23.75;54.74;104836.06;5073728;28;20043;-63
2022/03/19 02:38:33;;;;;;;132.27;68.15;;;;;;;23.74;54.62;104826.94;5073664;28;20032;-63
2022/03/19 02:41:03;;;;;;;133.18;69.30;;;;;;;23.73;54.50;104832.56;5094107;28;20104;-63
2022/03/19 02:43:29;;;;;;;143.50;75.50;;;;;;;23.73;54.72;104838.94;5093381;28;20048;-62
2022/03/19 02:45:54;;;;;;;129.18;71.25;;;;;;;23.68;54.79;104842.03;5092635;28;20111;-64
2022/03/19 02:48:20;;;;;;;126.85;70.88;;;;;;;23.65;55.19;104852.34;5093626;28;20024;-63
2022/03/19 02:50:45;;;;;;;129.18;70.90;;;;;;;23.70;55.19;104851.03;5075309;28;20422;-63
2022/03/19 02:53:13;;;;;;;127.05;68.38;;;;;;;23.74;55.37;104850.81;5086271;28;20024;-63
2022/03/19 02:55:40;;;;;;;138.18;71.25;;;;;;;23.66;55.36;104857.72;5093760;28;20455;-63
2022/03/19 02:58:07;;;;;;;125.45;66.97;;;;;;;23.64;54.73;104845.09;5093566;28;20032;-63
2022/03/19 03:00:33;;;;;;;126.60;69.97;;;;;;;23.68;55.02;104853.03;5093577;28;20139;-64
2022/03/19 03:02:59;;;;;;;122.35;67.05;;;;;;;23.66;55.13;104865.97;5093673;28;20481;-63
2022/03/19 03:05:25;;;;;;;125.50;67.30;;;;;;;23.68;54.84;104869.50;5093380;28;20024;-63
2022/03/19 03:07:50;;;;;;;123.55;65.88;;;;;;;23.62;55.53;104872.66;5093549;28;20056;-64
2022/03/19 03:10:16;;;;;;;120.07;65.82;;;;;;;23.65;54.86;104877.94;5093252;28;20027;-63
2022/03/19 03:12:42;;;;;;;121.10;66.18;;;;;;;23.61;56.66;104873.66;5093364;28;20542;-63
2022/03/19 03:15:08;;;;;;;131.75;68.95;;;;;;;23.74;55.99;104878.28;5093352;28;20115;-63
2022/03/19 03:17:34;;;;;;;141.65;69.97;;;;;;;23.70;56.79;104877.63;5093205;28;20065;-63
2022/03/19 03:20:00;;;;;;;127.88;67.85;;;;;;;23.73;56.30;104885.66;5093277;28;20020;-64
2022/03/19 03:22:26;;;;;;;120.88;64.80;;;;;;;23.70;55.96;104878.50;5086281;28;20024;-63
2022/03/19 03:24:51;;;;;;;125.32;64.50;;;;;;;23.68;55.90;104883.25;5083296;28;20032;-63
2022/03/19 03:27:16;;;;;;;123.95;65.00;;;;;;;23.66;56.94;104887.94;5091735;28;20023;-63
2022/03/19 03:29:42;;;;;;;127.13;66.30;;;;;;;23.63;55.96;104888.16;5093176;28;20383;-63
2022/03/19 03:32:09;;;;;;;124.80;67.22;;;;;;;23.70;55.34;104889.50;5092785;28;20516;-64
2022/03/19 03:34:35;;;;;;;122.57;64.05;;;;;;;23.73;56.85;104887.53;5092970;28;20032;-64
2022/03/19 03:37:00;;;;;;;127.22;65.53;;;;;;;23.70;55.98;104905.13;5093047;28;20059;-63
2022/03/19 03:39:26;;;;;;;123.43;62.30;;;;;;;23.69;55.71;104906.97;5092772;28;20434;-63
2022/03/19 03:41:51;;;;;;;123.47;62.50;;;;;;;23.73;55.93;104898.50;5093193;28;20107;-64
2022/03/19 03:44:16;;;;;;;131.18;66.88;;;;;;;23.66;56.65;104898.06;5092644;28;20360;-63
2022/03/19 03:46:41;;;;;;;118.40;60.13;;;;;;;23.72;57.28;104907.75;5093389;28;20099;-63
2022/03/19 03:49:08;;;;;;;133.90;66.47;;;;;;;23.64;57.36;104911.03;5086208;28;20027;-64
2022/03/19 03:51:33;;;;;;;122.20;60.97;;;;;;;23.68;56.93;104918.06;5072365;28;20054;-63
2022/03/19 03:53:58;;;;;;;125.38;63.05;;;;;;;23.70;56.87;104906.00;5072484;28;20017;-63
2022/03/19 03:56:24;;;;;;;126.20;64.78;;;;;;;23.60;56.96;104918.63;5072263;28;20460;-64
2022/03/19 03:58:50;;;;;;;123.82;64.03;;;;;;;23.70;57.58;104916.97;5072545;28;20490;-63
2022/03/19 04:01:16;;;;;;;126.95;63.85;;;;;;;23.70;57.95;104906.00;5072388;28;20106;-63
2022/03/19 04:03:44;;;;;;;119.93;61.42;;;;;;;23.66;57.16;104920.03;5072734;28;20025;-63
2022/03/19 04:06:09;;;;;;;117.65;58.80;;;;;;;23.74;57.14;104922.25;5072396;28;20028;-64
2022/03/19 04:08:35;;;;;;;121.57;60.60;;;;;;;23.69;57.24;104931.72;5072307;28;20086;-64
2022/03/19 04:11:00;;;;;;;116.32;60.35;;;;;;;23.70;58.09;104930.72;5072689;28;20024;-64
2022/03/19 04:13:25;;;;;;;110.90;61.05;;;;;;;23.61;57.52;104934.09;5072151;28;20022;-63
2022/03/19 04:15:51;;;;;;;111.40;59.42;;;;;;;23.68;56.96;104938.19;5072293;28;20414;-64
2022/03/19 04:18:16;;;;;;;114.20;60.40;;;;;;;23.64;57.55;104939.38;5074054;28;20024;-63
2022/03/19 04:20:41;;;;;;;112.53;59.85;;;;;;;23.62;58.09;104941.38;5097854;28;20016;-63
2022/03/19 04:23:07;;;;;;;128.73;65.00;;;;;;;23.63;57.86;104943.13;5098941;28;20506;-64
2022/03/19 04:25:32;;;;;;;123.47;62.22;;;;;;;23.59;57.81;104935.22;5099237;28;20109;-63
2022/03/19 04:27:57;;;;;;;110.50;60.60;;;;;;;23.64;57.17;104936.63;5097827;28;20032;-63
2022/03/19 04:30:27;;;;;;;115.03;58.05;;;;;;;23.67;56.66;104939.16;5098909;28;20471;-64
2022/03/19 04:32:58;;;;;;;120.30;58.05;;;;;;;23.70;57.45;104943.59;5099004;28;20044;-64
2022/03/19 04:38:11;;;;;;;117.78;60.08;;;;;;;23.58;55.78;104950.81;5081015;28;20546;-64
2022/03/19 04:40:38;;;;;;;114.63;59.92;;;;;;;23.56;55.81;104941.78;5078691;28;20031;-64
2022/03/19 04:43:04;;;;;;;121.75;60.33;;;;;;;23.60;55.13;104943.34;5078801;28;20470;-63
2022/03/19 04:45:30;;;;;;;126.20;60.88;;;;;;;23.61;55.96;104945.09;5078537;28;20494;-64
2022/03/19 04:47:56;;;;;;;116.93;56.92;;;;;;;23.64;55.35;104947.63;5078825;28;20024;-63
2022/03/19 04:50:22;;;;;;;111.00;56.92;;;;;;;23.56;55.57;104952.75;5096519;28;20536;-63
2022/03/19 04:52:49;;;;;;;122.13;63.67;;;;;;;23.55;55.63;104950.13;5098938;28;20130;-64
2022/03/19 04:55:15;;;;;;;114.32;60.05;;;;;;;23.61;55.16;104961.59;5098750;28;20023;-63
2022/03/19 04:57:40;;;;;;;118.10;61.72;;;;;;;23.51;55.65;104960.44;5099174;28;20103;-64
2022/03/19 05:00:07;;;;;;;121.57;61.92;;;;;;;23.49;56.01;104956.91;5098858;28;20395;-64
2022/03/19 05:02:33;;;;;;;119.35;63.15;;;;;;;23.64;54.73;104960.47;5097446;28;20056;-63
2022/03/19 05:05:00;;;;;;;120.00;60.10;;;;;;;23.82;54.68;104961.03;5098851;28;20067;-64
2022/03/19 05:11:16;;;;;;;130.05;66.30;;;;;;;23.91;54.04;104968.66;5099121;28;20092;-64
2022/03/19 05:13:43;;;;;;;;;;;;;;;23.88;54.24;104966.13;5099172;28;20024;-63
2022/03/19 05:16:08;;;;;;;138.85;69.65;;;;;;;23.93;53.75;104956.53;5098871;28;19991;-64
2022/03/19 05:18:34;;;;;;;133.20;69.80;;;;;;;23.99;54.02;104955.22;5094847;28;20111;-63
2022/03/19 05:20:59;;;;;;;142.30;71.18;;;;;;;23.96;53.68;104960.94;5077461;28;20031;-63
2022/03/19 05:23:25;;;;;;;144.05;72.18;;;;;;;24.03;54.36;104962.28;5078248;28;20099;-64
2022/03/19 05:25:52;;;;;;;144.57;71.93;;;;;;;24.01;54.04;104958.72;5078463;28;20024;-63
2022/03/19 05:28:17;;;;;;;141.93;74.45;;;;;;;24.02;54.39;104955.03;5078044;28;20628;-63
2022/03/19 05:30:43;;;;;;;146.35;72.65;;;;;;;24.06;54.22;104962.03;5074883;28;20024;-64
2022/03/19 05:33:08;;;;;;;139.60;70.28;;;;;;;24.14;54.09;104956.84;5074884;28;20408;-64
2022/03/19 05:35:34;;;;;;;147.18;72.00;;;;;;;24.10;54.85;104949.81;5074933;28;20072;-64
2022/03/19 05:38:00;;;;;;;137.85;68.65;;;;;;;24.18;55.46;104958.38;5075056;28;20024;-64
2022/03/19 05:40:28;;;;;;;126.13;63.03;;;;;;;24.23;53.83;104958.06;5074789;28;20025;-64
2022/03/19 05:42:53;;;;;;;121.40;61.22;;;;;;;24.23;54.36;104964.44;5075029;28;20023;-64
2022/03/19 05:45:20;;;;;;;110.90;58.72;;;;;;;24.34;54.62;104965.53;5074697;28;20028;-63
2022/03/19 05:47:46;;;;;;;111.03;57.22;;;;;;;24.35;54.57;104972.81;5074738;28;20036;-64
2022/03/19 05:50:12;;;;;;;107.65;55.63;;;;;;;24.36;53.84;104980.09;5093412;28;20036;-65
2022/03/19 05:52:39;;;;;;;92.22;50.33;;;;;;;24.36;55.39;104974.59;5094890;28;20028;-64
2022/03/19 05:55:05;;;;;;;100.85;50.78;;;;;;;24.48;55.28;104962.66;5094888;28;20048;-64
2022/03/19 05:57:30;;;;;;;86.00;46.30;;;;;;;24.48;54.28;104968.16;5094644;28;20100;-65
2022/03/19 05:59:56;;;;;;;92.00;47.65;;;;;;;24.44;55.61;104963.88;5094795;28;20024;-64
2022/03/19 06:02:21;;;;;;;92.70;45.65;;;;;;;24.39;55.40;104953.22;5094534;28;20024;-63
2022/03/19 06:04:46;;;;;;;75.40;39.85;;;;;;;24.64;55.81;104941.25;5094813;28;20031;-64
2022/03/19 06:07:12;;;;;;;80.53;41.33;;;;;;;24.57;54.51;104948.22;5093370;28;20028;-64
2022/03/19 06:09:37;;;;;;;75.90;39.60;;;;;;;24.59;54.53;104960.00;5094668;28;20024;-64
2022/03/19 06:12:03;;;;;;;71.80;40.42;;;;;;;24.56;55.61;104961.09;5094628;28;20386;-64
2022/03/19 06:14:28;;;;;;;67.22;36.25;;;;;;;24.56;54.34;104965.72;5094647;28;20086;-63
2022/03/19 06:16:54;;;;;;;61.17;35.03;;;;;;;24.54;54.25;104956.72;5094571;28;20016;-63
2022/03/19 06:19:19;;;;;;;61.45;32.67;;;;;;;24.66;54.36;104949.38;5081931;28;20483;-64
2022/03/19 06:21:45;;;;;;;64.53;33.03;;;;;;;24.58;53.83;104941.72;5074221;28;20052;-63
2022/03/19 06:24:10;;;;;;;57.78;30.55;;;;;;;24.59;54.12;104937.97;5074118;28;20067;-63
2022/03/19 06:26:36;;;;;;;56.58;31.55;;;;;;;24.66;54.78;104933.75;5074041;28;20373;-63
2022/03/19 06:29:02;;;;;;;54.53;30.33;;;;;;;24.66;55.18;104931.00;5074195;28;20067;-63
2022/03/19 06:31:28;;;;;;;57.60;30.55;;;;;;;24.66;55.00;104933.75;5073685;28;20041;-64
2022/03/19 06:33:54;;;;;;;52.95;29.90;;;;;;;24.60;55.73;104929.59;5073992;28;20026;-64
2022/03/19 06:39:04;;;;;;;52.65;28.02;;;;;;;24.55;55.27;104939.22;5073943;28;20043;-65
2022/03/19 06:41:29;;;;;;;51.65;28.50;;;;;;;24.61;54.75;104941.50;5073387;28;20032;-64
2022/03/19 06:43:55;;;;;;;48.25;25.02;;;;;;;24.68;54.87;104947.41;5073828;28;20021;-64
2022/03/19 06:46:20;;;;;;;46.55;25.90;;;;;;;24.68;56.24;104951.03;5073550;28;20031;-64
2022/03/19 06:48:50;;;;;;;47.50;26.42;;;;;;;24.58;54.23;104952.75;5080631;28;20455;-64
2022/03/19 06:51:16;;;;;;;50.58;27.60;;;;;;;24.68;54.53;104948.28;5093719;28;20023;-63
2022/03/19 06:53:42;;;;;;;44.47;23.73;;;;;;;24.73;55.36;104951.59;5093795;28;20039;-64
2022/03/19 06:56:07;;;;;;;45.90;24.30;;;;;;;24.67;54.82;104963.03;5093784;28;20020;-64
2022/03/19 06:58:33;;;;;;;45.00;24.98;;;;;;;24.62;55.54;104959.75;5093637;28;20049;-63
2022/03/19 07:00:58;;;;;;;42.40;23.08;;;;;;;24.68;55.46;104969.41;5093791;28;20459;-64
2022/03/19 07:03:24;;;;;;;44.53;24.98;;;;;;;24.59;54.35;104963.63;5093427;28;20024;-64
2022/03/19 07:05:49;;;;;;;39.80;22.23;;;;;;;24.65;53.87;104978.78;5093707;28;20055;-63
2022/03/19 07:08:15;;;;;;;38.95;21.98;;;;;;;24.74;55.76;104968.97;5093384;28;20035;-64
2022/03/19 07:10:40;;;;;;;42.65;22.35;;;;;;;24.69;54.01;104972.09;5093804;28;20046;-63
2022/03/19 07:13:06;;;;;;;39.60;22.20;;;;;;;24.74;54.74;104975.34;5093460;28;20024;-64
2022/03/19 07:15:31;;;;;;;39.03;21.90;;;;;;;24.61;53.93;104982.78;5093267;28;20043;-63
2022/03/19 07:18:00;;;;;;;35.88;20.75;;;;;;;24.65;54.41;104987.03;5090437;28;20020;-62
2022/03/19 07:20:26;;;;;;;36.05;20.55;;;;;;;24.68;54.67;104985.94;5072886;28;20035;-64
2022/03/19 07:22:54;;;;;;;38.05;21.17;;;;;;;24.73;54.81;104981.84;5073131;28;20032;-63
2022/03/19 07:25:22;;;;;;;34.88;18.60;;;;;;;24.68;52.61;104985.94;5072814;28;20055;-63
2022/03/19 07:27:50;;;;;;;38.70;21.23;;;;;;;24.71;53.77;104975.59;5073017;28;20031;-65
2022/03/19 07:33:37;;;;;;;33.85;19.17;;;;;;;24.73;54.01;104979.09;5072890;28;20055;-63
2022/03/19 07:36:04;;;;;;;34.58;19.50;;;;;;;24.75;53.14;104979.88;5072744;28;20028;-63
2022/03/19 07:38:31;;;;;;;32.65;18.13;;;;;;;24.64;51.99;104985.28;5072627;28;20078;-64
2022/03/19 07:43:41;;;;;;;;;;;;;;;24.74;52.92;104969.84;5073191;28;20035;-63
2022/03/19 07:46:06;;;;;;;32.83;17.15;;;;;;;24.68;51.55;104986.81;5071281;28;20359;-64
2022/03/19 07:48:32;;;;;;;34.83;17.95;;;;;;;24.74;51.85;104975.34;5079474;28;20054;-63
2022/03/19 07:50:57;;;;;;;31.17;16.65;;;;;;;24.69;51.49;104969.34;5092600;28;20035;-64
2022/03/19 07:53:22;;;;;;;32.00;18.08;;;;;;;24.69;50.74;104969.34;5091844;28;20028;-64
2022/03/19 07:55:50;;;;;;;33.13;18.05;;;;;;;24.72;52.33;104970.97;5092884;28;20020;-63
2022/03/19 07:58:15;;;;;;;33.35;17.52;;;;;;;24.68;50.56;104964.78;5087748;28;20411;-64
2022/03/19 08:00:40;;;;;;;30.55;16.30;;;;;;;24.67;50.39;104964.91;5072506;28;20028;-64
2022/03/19 08:03:05;;;;;;;29.58;15.60;;;;;;;24.73;52.26;104962.59;5072449;28;20027;-63
2022/03/19 08:05:31;;;;;;;27.40;15.25;;;;;;;24.78;52.50;104971.38;5072321;28;20449;-64
2022/03/19 08:07:56;;;;;;;30.27;16.00;;;;;;;24.73;51.09;104973.59;5074108;28;20016;-64
2022/03/19 08:10:22;;;;;;;28.08;15.10;;;;;;;24.85;52.88;104972.66;5092337;28;20059;-63
2022/03/19 08:12:48;;;;;;;30.70;15.65;;;;;;;24.74;52.79;104969.84;5092592;28;20352;-64
2022/03/19 08:15:14;;;;;;;27.92;15.43;;;;;;;24.78;50.83;104968.63;5092366;28;20055;-64
2022/03/19 08:17:42;;;;;;;28.13;14.73;;;;;;;24.85;52.40;104972.66;5079403;28;20187;-64
2022/03/19 08:20:08;;;;;;;29.30;15.40;;;;;;;24.85;52.62;104966.28;5072255;28;20030;-64
2022/03/19 08:22:34;;;;;;;28.88;14.77;;;;;;;24.75;52.15;104966.09;5072165;28;20095;-64
2022/03/19 08:24:59;;;;;;;28.85;15.55;;;;;;;24.83;52.36;104958.13;5072354;28;20103;-64
2022/03/19 08:27:26;;;;;;;26.17;13.60;;;;;;;24.74;52.53;104958.84;5082328;28;20482;-64
2022/03/19 08:29:52;;;;;;;30.20;15.15;;;;;;;24.80;52.12;104958.38;5092546;28;20028;-64
2022/03/19 08:32:17;;;;;;;29.58;13.63;;;;;;;24.80;52.42;104954.75;5090724;28;20372;-64
2022/03/19 08:34:44;;;;;;;26.67;14.57;;;;;;;24.84;53.33;104953.50;5092751;28;20066;-64
2022/03/19 08:37:10;;;;;;;27.42;14.65;;;;;;;24.85;53.31;104956.13;5083782;28;20035;-63
2022/03/19 08:42:19;;;;;;;25.77;13.32;;;;;;;24.87;54.03;104958.81;5071870;28;20035;-64
2022/03/19 08:44:44;;;;;;;24.98;11.93;;;;;;;24.90;53.83;104953.94;5072135;28;20395;-64
2022/03/19 08:47:09;;;;;;;21.70;11.77;;;;;;;24.85;53.65;104960.75;5079882;28;20044;-65
2022/03/19 08:49:35;;;;;;;19.33;11.10;;;;;;;24.86;54.20;104966.19;5092145;28;20482;-64
2022/03/19 08:52:00;;;;;;;23.77;11.75;;;;;;;24.84;53.34;104962.63;5092185;28;20073;-63
2022/03/19 08:54:25;;;;;;;21.42;11.50;;;;;;;24.83;53.10;104958.13;5091965;28;20016;-65
2022/03/19 08:56:51;;;;;;;19.65;10.30;;;;;;;24.82;52.24;104961.88;5086798;28;20064;-64
2022/03/19 08:59:19;;;;;;;19.95;9.98;;;;;;;24.82;53.83;104950.88;5071690;28;20028;-63
2022/03/19 09:01:45;;;;;;;20.42;9.75;;;;;;;24.88;52.91;104950.41;5070706;28;20023;-64
2022/03/19 09:04:11;;;;;;;19.55;10.20;;;;;;;24.77;52.13;104946.72;5071983;28;20044;-63
2022/03/19 09:06:38;;;;;;;19.73;10.27;;;;;;;24.81;52.19;104949.13;5078415;28;20534;-64
2022/03/19 09:09:03;;;;;;;19.25;9.30;;;;;;;24.78;51.41;104951.22;5095733;28;20463;-64
2022/03/19 09:11:31;;;;;;;17.42;9.43;;;;;;;24.88;53.61;104955.06;5095627;28;20061;-64
2022/03/19 09:13:56;;;;;;;18.90;8.75;;;;;;;24.89;53.21;104949.44;5095562;28;20063;-64
2022/03/19 09:16:23;;;;;;;18.90;9.18;;;;;;;24.92;54.41;104966.69;5094183;28;20063;-64
2022/03/19 09:18:49;;;;;;;15.23;8.10;;;;;;;24.86;52.91;104957.94;5075329;28;20047;-64
2022/03/19 09:21:15;;;;;;;15.43;8.32;;;;;;;24.87;52.76;104961.56;5075179;28;20029;-64
2022/03/19 09:23:42;;;;;;;16.05;7.78;;;;;;;24.83;52.71;104952.63;5075154;28;20031;-64
2022/03/19 09:26:07;;;;;;;16.67;8.35;;;;;;;24.81;54.48;104951.88;5075081;28;20031;-64
2022/03/19 09:28:32;;;;;;;18.42;9.23;;;;;;;24.84;53.72;104951.63;5093554;28;20036;-64
2022/03/19 09:30:57;;;;;;;20.33;9.65;;;;;;;24.83;53.83;104952.63;5085807;28;20464;-64
2022/03/19 09:33:24;;;;;;;17.27;9.02;;;;;;;24.83;53.14;104949.88;5074466;28;20055;-64
2022/03/19 09:35:49;;;;;;;15.50;8.38;;;;;;;24.84;54.35;104953.50;5075145;28;20024;-65
2022/03/19 09:38:15;;;;;;;16.17;8.57;;;;;;;24.83;53.05;104947.13;5075043;28;20407;-64
2022/03/19 09:40:41;;;;;;;14.00;7.60;;;;;;;24.83;53.52;104952.63;5073790;28;20025;-65
2022/03/19 09:43:07;;;;;;;17.35;8.35;;;;;;;24.85;53.34;104950.63;5075052;28;20142;-63
2022/03/19 09:45:34;;;;;;;19.73;9.63;;;;;;;24.75;53.49;104948.72;5074796;28;20511;-64
2022/03/19 09:48:01;;;;;;;18.75;9.57;;;;;;;24.76;53.33;104948.59;5088407;28;20511;-65
2022/03/19 09:50:27;;;;;;;18.63;10.18;;;;;;;24.78;52.57;104941.09;5094887;28;20024;-64
2022/03/19 09:52:55;;;;;;;16.17;9.25;;;;;;;24.80;53.65;104939.09;5094873;28;20043;-64
2022/03/19 09:55:21;;;;;;;16.45;8.98;;;;;;;24.85;52.86;104934.13;5094678;28;20050;-65
2022/03/19 09:57:47;;;;;;;18.23;8.85;;;;;;;24.80;55.13;104941.84;5082902;28;20078;-64
2022/03/19 10:00:13;;;;;;;18.70;10.07;;;;;;;24.81;54.35;104935.34;5074540;28;20028;-63
2022/03/19 10:02:59;;;;;;;21.48;10.18;;;;;;;24.72;52.91;104938.81;5074532;28;20016;-65
2022/03/19 10:10:57;;;;;;;19.83;10.07;;;;;;;24.82;52.36;104942.59;5094724;28;20034;-64
2022/03/19 10:13:25;;;;;;;18.65;8.85;;;;;;;24.85;52.10;104936.88;5094162;28;20111;-64
2022/03/19 10:15:50;;;;;;;18.65;9.50;;;;;;;24.78;52.47;104932.84;5094149;28;20352;-64
2022/03/19 10:18:17;;;;;;;16.17;7.72;;;;;;;24.87;51.91;104937.66;5075461;28;20817;-63
2022/03/19 10:20:42;;;;;;;18.05;9.50;;;;;;;24.81;51.73;104926.22;5074344;28;20036;-64
2022/03/19 10:23:08;;;;;;;15.13;7.43;;;;;;;24.70;50.50;104927.06;5074291;28;20017;-63
2022/03/19 10:25:33;;;;;;;15.30;8.32;;;;;;;24.82;52.15;104928.84;5074102;28;20467;-64
2022/03/19 10:28:11;;;;;;;14.38;8.07;;;;;;;24.79;50.74;104918.06;5089711;28;20024;-63
2022/03/19 10:30:39;;;;;;;17.88;7.65;;;;;;;24.80;50.53;104916.19;5094227;28;20034;-64
2022/03/19 10:33:08;;;;;;;16.02;7.10;;;;;;;24.85;51.54;104911.22;5093896;28;20037;-65
2022/03/19 10:35:36;;;;;;;14.18;7.18;;;;;;;24.81;50.56;104907.81;5094253;28;20396;-64
2022/03/19 10:38:15;;;;;;;14.27;7.18;;;;;;;24.79;49.65;104909.81;5078030;28;20025;-64
2022/03/19 10:40:42;;;;;;;13.13;6.60;;;;;;;24.80;49.22;104913.44;5074472;28;20090;-65
2022/03/19 10:43:09;;;;;;;12.20;6.47;;;;;;;24.80;50.44;104908.81;5072839;28;20452;-64
2022/03/19 10:45:43;;;;;;;11.35;6.80;;;;;;;24.80;49.13;104914.31;5073707;28;20115;-65
2022/03/19 10:48:09;;;;;;;13.00;6.57;;;;;;;24.80;49.85;104911.56;5090062;28;20395;-64
2022/03/19 10:50:39;;;;;;;12.70;6.45;;;;;;;24.75;49.66;104916.56;5093840;28;20024;-64
2022/03/19 10:53:05;;;;;;;13.95;6.93;;;;;;;24.86;50.54;104911.13;5093685;28;20046;-63
2022/03/19 10:55:30;;;;;;;15.07;7.70;;;;;;;24.81;50.11;104910.56;5092334;28;20016;-64
2022/03/19 10:57:56;;;;;;;12.77;6.93;;;;;;;24.78;49.01;104913.56;5078931;28;20024;-65
2022/03/19 11:00:22;;;;;;;13.55;7.03;;;;;;;24.89;50.29;104907.25;5073074;28;20100;-65
2022/03/19 11:02:49;;;;;;;13.48;6.38;;;;;;;24.86;51.09;104897.34;5073283;28;20059;-65
2022/03/19 11:05:18;;;;;;;13.20;5.95;;;;;;;24.89;50.97;104894.38;5071935;28;20028;-64
2022/03/19 11:07:44;;;;;;;11.48;6.65;;;;;;;24.88;51.19;104895.38;5085896;28;20024;-64
2022/03/19 11:10:10;;;;;;;12.48;6.07;;;;;;;24.89;50.33;104897.13;5093521;28;20467;-66
2022/03/19 11:12:40;;;;;;;17.38;6.93;;;;;;;24.94;51.33;104898.63;5093494;28;20103;-65
2022/03/19 11:15:09;;;;;;;15.52;7.70;;;;;;;24.85;51.10;104884.56;5093349;28;20024;-65
2022/03/19 11:17:38;;;;;;;12.32;6.20;;;;;;;24.85;48.75;104873.56;5082032;28;20029;-67
2022/03/19 11:20:06;;;;;;;14.30;6.55;;;;;;;24.82;49.91;104862.78;5073053;28;20021;-64
2022/03/19 11:22:41;;;;;;;13.73;6.95;;;;;;;24.80;50.33;104870.28;5072888;28;20083;-64
2022/03/19 11:25:32;;;;;;;13.25;6.57;;;;;;;24.85;50.71;104862.53;5073034;28;20039;-65
2022/03/19 11:27:59;;;;;;;14.27;6.10;;;;;;;24.87;52.25;104860.56;5089368;28;20024;-64
2022/03/19 11:31:03;;;;;;;14.40;6.80;;;;;;;24.83;50.02;104863.66;5092895;28;20020;-64